createdAt,value
2019-01-09T00:02:29.051Z,3.03
2019-01-09T00:05:36.891Z,3.04
2019-01-09T00:08:44.091Z,3.27
2019-01-09T00:11:51.388Z,3.16
2019-01-09T00:14:59.894Z,3.25
2019-01-09T00:18:16.992Z,3.28
2019-01-09T00:21:24.986Z,3.31
2019-01-09T00:24:32.475Z,3.31
2019-01-09T00:27:39.686Z,3.27
2019-01-09T00:30:47.379Z,3.39
2019-01-09T00:34:04.219Z,3.43
2019-01-09T00:37:20.899Z,3.48
2019-01-09T00:40:28.089Z,3.47
2019-01-09T00:43:35.273Z,3.44
2019-01-09T00:46:42.474Z,3.44
2019-01-09T00:49:49.679Z,3.47
2019-01-09T00:52:56.968Z,3.44
2019-01-09T00:56:04.158Z,3.49
2019-01-09T00:59:11.354Z,3.49
2019-01-09T01:02:55.456Z,3.53
2019-01-09T01:07:00.645Z,3.53
2019-01-09T01:10:53.557Z,3.50
2019-01-09T01:15:04.548Z,3.55
2019-01-09T01:18:53.874Z,3.47
2019-01-09T01:22:53.900Z,3.47
2019-01-09T01:26:21.890Z,3.53
2019-01-09T01:29:49.655Z,3.51
2019-01-09T01:33:35.457Z,3.43
2019-01-09T01:37:19.588Z,3.45
2019-01-09T01:40:38.981Z,3.36
2019-01-09T01:44:36.251Z,3.26
2019-01-09T01:48:21.397Z,3.35
2019-01-09T01:52:11.274Z,3.28
2019-01-09T01:56:26.397Z,3.19
2019-01-09T01:59:39.774Z,3.08
2019-01-09T02:03:19.270Z,3.05
2019-01-09T02:07:11.103Z,3.00
2019-01-09T02:10:58.575Z,3.03
2019-01-09T02:14:42.293Z,3.03
2019-01-09T02:17:56.114Z,3.06
2019-01-09T02:21:32.720Z,3.03
2019-01-09T02:25:10.826Z,3.11
2019-01-09T02:28:34.304Z,3.14
2019-01-09T02:32:07.322Z,3.20
2019-01-09T02:35:14.716Z,3.19
2019-01-09T02:38:22.024Z,3.15
2019-01-09T02:41:29.332Z,3.14
2019-01-09T02:44:36.450Z,3.16
2019-01-09T02:47:43.724Z,3.18
2019-01-09T02:50:50.930Z,3.13
2019-01-09T02:53:58.318Z,3.14
2019-01-09T02:57:05.864Z,3.17
2019-01-09T03:00:22.239Z,3.30
2019-01-09T03:03:29.426Z,3.26
2019-01-09T03:06:46.120Z,3.33
2019-01-09T03:09:53.322Z,3.25
2019-01-09T03:13:00.517Z,3.34
2019-01-09T03:16:07.819Z,3.32
2019-01-09T03:19:15.006Z,3.24
2019-01-09T03:22:34.224Z,3.15
2019-01-09T03:25:41.474Z,3.06
2019-01-09T03:28:48.873Z,2.98
2019-01-09T03:32:05.372Z,2.97
2019-01-09T03:35:12.558Z,3.00
2019-01-09T03:38:19.754Z,2.99
2019-01-09T03:41:27.131Z,3.02
2019-01-09T03:44:43.714Z,3.01
2019-01-09T03:47:50.835Z,3.00
2019-01-09T03:50:57.938Z,3.02
2019-01-09T03:54:05.231Z,3.04
2019-01-09T03:57:12.441Z,3.01
2019-01-09T04:00:18.901Z,2.95
2019-01-09T04:03:26.362Z,2.98
2019-01-09T04:06:41.629Z,3.00
2019-01-09T04:09:42.657Z,2.98
2019-01-09T04:12:49.853Z,3.01
2019-01-09T04:15:56.993Z,3.01
2019-01-09T04:19:04.304Z,2.94
2019-01-09T04:22:11.798Z,2.75
2019-01-09T04:25:19.750Z,2.80
2019-01-09T04:28:26.947Z,2.84
2019-01-09T04:31:34.135Z,2.91
2019-01-09T04:34:41.258Z,2.86
2019-01-09T04:37:48.401Z,2.80
2019-01-09T04:40:55.517Z,2.75
2019-01-09T04:44:03.142Z,2.75
2019-01-09T04:47:10.590Z,2.82
2019-01-09T04:50:17.721Z,2.86
2019-01-09T04:53:25.092Z,2.90
2019-01-09T04:56:32.426Z,2.88
2019-01-09T04:59:39.606Z,2.92
2019-01-09T05:02:46.248Z,2.95
2019-01-09T05:05:53.455Z,3.03
2019-01-09T05:09:00.689Z,3.01
2019-01-09T05:12:07.817Z,3.05
2019-01-09T05:15:15.034Z,3.02
2019-01-09T05:18:22.332Z,3.02
2019-01-09T05:21:28.414Z,3.09
2019-01-09T05:24:35.714Z,3.12
2019-01-09T05:27:42.993Z,3.20
2019-01-09T05:30:50.123Z,3.18
2019-01-09T05:34:06.852Z,3.17
2019-01-09T05:37:13.978Z,3.18
2019-01-09T05:40:21.098Z,3.19
2019-01-09T05:43:28.202Z,3.16
2019-01-09T05:46:35.355Z,3.20
2019-01-09T05:49:42.589Z,3.32
2019-01-09T05:52:49.813Z,3.22
2019-01-09T05:55:57.041Z,3.17
2019-01-09T05:59:04.150Z,3.02
2019-01-09T06:02:11.281Z,3.02
2019-01-09T06:05:18.397Z,3.00
2019-01-09T06:08:25.599Z,2.99
2019-01-09T06:11:32.753Z,2.99
2019-01-09T06:14:39.999Z,3.08
2019-01-09T06:17:47.491Z,3.04
2019-01-09T06:20:54.622Z,3.04
2019-01-09T06:24:01.752Z,3.08
2019-01-09T06:27:08.961Z,3.05
2019-01-09T06:30:16.259Z,3.11
2019-01-09T06:33:23.382Z,3.04
2019-01-09T06:36:30.885Z,3.18
2019-01-09T06:39:38.186Z,3.07
2019-01-09T06:42:54.853Z,3.22
2019-01-09T06:46:01.975Z,3.17
2019-01-09T06:49:09.162Z,3.22
2019-01-09T06:52:16.282Z,3.19
2019-01-09T06:55:23.517Z,3.29
2019-01-09T06:58:30.668Z,3.29
2019-01-09T07:01:37.799Z,3.30
2019-01-09T07:04:45.016Z,3.34
2019-01-09T07:07:52.138Z,3.35
2019-01-09T07:10:59.264Z,3.26
2019-01-09T07:14:06.891Z,3.24
2019-01-09T07:17:14.079Z,3.06
2019-01-09T07:20:21.300Z,3.03
2019-01-09T07:23:28.425Z,3.01
2019-01-09T07:26:45.083Z,3.10
2019-01-09T07:29:52.277Z,3.12
2019-01-09T07:32:59.505Z,3.00
2019-01-09T07:36:06.727Z,3.05
2019-01-09T07:39:13.847Z,3.01
2019-01-09T07:42:21.181Z,3.10
2019-01-09T07:45:37.832Z,3.17
2019-01-09T07:48:45.051Z,3.21
2019-01-09T07:51:52.173Z,3.18
2019-01-09T07:54:59.462Z,3.19
2019-01-09T07:58:06.762Z,3.22
2019-01-09T08:01:23.374Z,3.24
2019-01-09T08:04:32.412Z,3.17
2019-01-09T08:07:39.445Z,3.23
2019-01-09T08:10:56.161Z,3.22
2019-01-09T08:14:03.446Z,3.14
2019-01-09T08:17:20.077Z,3.12
2019-01-09T08:20:27.259Z,3.12
2019-01-09T08:23:34.457Z,3.07
2019-01-09T08:26:41.673Z,2.97
2019-01-09T08:29:48.843Z,2.97
2019-01-09T08:32:55.959Z,2.85
2019-01-09T08:36:03.049Z,2.87
2019-01-09T08:39:10.250Z,2.77
2019-01-09T08:42:17.541Z,2.92
2019-01-09T08:45:24.729Z,2.87
2019-01-09T08:48:31.866Z,2.89
2019-01-09T08:51:39.075Z,2.71
2019-01-09T08:54:46.359Z,2.51
2019-01-09T08:57:53.752Z,2.51
2019-01-09T09:01:10.430Z,2.52
2019-01-09T09:04:17.563Z,2.64
2019-01-09T09:07:25.731Z,2.68
2019-01-09T09:10:33.067Z,2.65
2019-01-09T09:13:40.807Z,2.62
2019-01-09T09:16:47.937Z,2.66
2019-01-09T09:19:55.092Z,2.71
2019-01-09T09:23:02.226Z,2.73
2019-01-09T09:26:09.619Z,2.71
2019-01-09T09:29:16.855Z,2.78
2019-01-09T09:32:24.085Z,2.66
2019-01-09T09:35:31.287Z,2.77
2019-01-09T09:38:38.491Z,2.82
2019-01-09T09:41:45.607Z,2.80
2019-01-09T09:45:02.475Z,2.85
2019-01-09T09:48:09.762Z,2.86
2019-01-09T09:51:26.368Z,3.02
2019-01-09T09:54:33.654Z,2.99
2019-01-09T09:57:40.785Z,3.02
2019-01-09T10:00:47.553Z,3.03
2019-01-09T10:03:55.838Z,3.08
2019-01-09T10:07:03.047Z,3.22
2019-01-09T10:10:11.322Z,3.30
2019-01-09T10:13:18.441Z,3.22
2019-01-09T10:16:25.635Z,3.22
2019-01-09T10:19:32.830Z,3.24
2019-01-09T10:22:40.075Z,3.30
2019-01-09T10:25:47.466Z,3.26
2019-01-09T10:29:03.985Z,3.39
2019-01-09T10:32:11.173Z,3.38
2019-01-09T10:35:18.402Z,3.38
2019-01-09T10:38:38.185Z,3.44
2019-01-09T10:41:43.931Z,3.45
2019-01-09T10:45:00.667Z,3.51
2019-01-09T10:48:17.494Z,3.55
2019-01-09T10:51:24.637Z,3.50
2019-01-09T10:54:31.759Z,3.54
2019-01-09T10:57:39.045Z,3.57
2019-01-09T11:00:46.242Z,3.55
2019-01-09T11:03:51.859Z,3.63
2019-01-09T11:06:58.981Z,3.55
2019-01-09T11:10:06.051Z,3.47
2019-01-09T11:13:14.109Z,3.57
2019-01-09T11:16:21.336Z,3.52
2019-01-09T11:19:27.794Z,3.41
2019-01-09T11:22:34.911Z,3.40
2019-01-09T11:25:42.203Z,3.40
2019-01-09T11:28:49.594Z,3.43
2019-01-09T11:32:06.255Z,3.46
2019-01-09T11:35:14.307Z,3.44
2019-01-09T11:38:21.486Z,3.46
2019-01-09T11:41:28.687Z,3.46
2019-01-09T11:44:46.199Z,3.57
2019-01-09T11:47:53.630Z,3.45
2019-01-09T11:51:10.148Z,3.43
2019-01-09T11:54:17.338Z,3.34
2019-01-09T11:57:24.457Z,3.25
2019-01-09T12:00:31.641Z,3.30
2019-01-09T12:03:38.775Z,3.20
2019-01-09T12:06:45.916Z,3.32
2019-01-09T12:09:53.043Z,3.30
2019-01-09T12:13:00.277Z,3.29
2019-01-09T12:16:08.232Z,3.34
2019-01-09T12:19:15.647Z,3.36
2019-01-09T12:22:22.847Z,3.33
2019-01-09T12:25:30.069Z,3.39
2019-01-09T12:28:37.335Z,3.29
2019-01-09T12:31:44.573Z,3.30
2019-01-09T12:34:51.665Z,3.17
2019-01-09T12:37:58.866Z,3.10
2019-01-09T12:41:05.982Z,3.23
2019-01-09T12:44:13.277Z,3.23
2019-01-09T12:47:20.488Z,3.21
2019-01-09T12:50:27.692Z,3.10
2019-01-09T12:53:34.806Z,3.11
2019-01-09T12:56:41.939Z,3.11
2019-01-09T12:59:48.023Z,3.16
2019-01-09T13:02:55.221Z,3.19
2019-01-09T13:06:02.342Z,3.22
2019-01-09T13:09:10.358Z,3.23
2019-01-09T13:12:26.815Z,3.31
2019-01-09T13:15:34.005Z,3.28
2019-01-09T13:18:41.130Z,3.44
2019-01-09T13:21:48.248Z,3.40
2019-01-09T13:24:55.464Z,3.34
2019-01-09T13:28:02.590Z,3.33
2019-01-09T13:31:09.706Z,3.29
2019-01-09T13:34:16.837Z,3.32
2019-01-09T13:37:23.955Z,3.30
2019-01-09T13:40:31.272Z,3.36
2019-01-09T13:43:38.609Z,3.33
2019-01-09T13:46:45.798Z,3.42
2019-01-09T13:49:52.927Z,3.33
2019-01-09T13:53:00.053Z,3.33
2019-01-09T13:56:07.168Z,3.36
2019-01-09T13:59:15.424Z,3.39
2019-01-09T14:02:22.615Z,3.42
2019-01-09T14:05:29.773Z,3.40
2019-01-09T14:08:37.055Z,3.39
2019-01-09T14:11:44.546Z,3.41
2019-01-09T14:14:51.667Z,3.42
2019-01-09T14:17:58.964Z,3.34
2019-01-09T14:21:06.280Z,3.36
2019-01-09T14:24:13.600Z,3.36
2019-01-09T14:27:20.801Z,3.38
2019-01-09T14:30:29.019Z,3.36
2019-01-09T14:33:36.149Z,3.36
2019-01-09T14:36:43.425Z,3.32
2019-01-09T14:39:50.649Z,3.28
2019-01-09T14:42:57.958Z,3.27
2019-01-09T14:46:05.164Z,3.29
2019-01-09T14:49:12.423Z,3.26
2019-01-09T14:52:19.627Z,3.27
2019-01-09T14:55:26.817Z,3.27
2019-01-09T14:58:34.011Z,3.33
2019-01-09T15:01:41.206Z,3.31
2019-01-09T15:04:48.435Z,3.35
2019-01-09T15:07:55.633Z,3.33
2019-01-09T15:11:02.824Z,3.26
2019-01-09T15:14:10.126Z,3.30
2019-01-09T15:17:17.504Z,3.31
2019-01-09T15:20:24.638Z,3.38
2019-01-09T15:23:31.766Z,3.29
2019-01-09T15:26:38.919Z,3.37
2019-01-09T15:29:46.103Z,3.34
2019-01-09T15:32:53.366Z,3.39
2019-01-09T15:36:00.720Z,3.38
2019-01-09T15:39:09.172Z,3.35
2019-01-09T15:42:16.377Z,3.37
2019-01-09T15:45:33.972Z,3.38
2019-01-09T15:48:41.185Z,3.28
2019-01-09T15:51:57.898Z,3.34
2019-01-09T15:55:15.339Z,3.36
2019-01-09T15:58:22.637Z,3.30
2019-01-09T16:01:28.825Z,3.24
2019-01-09T16:04:36.125Z,3.37
2019-01-09T16:07:43.502Z,3.35
2019-01-09T16:10:50.620Z,3.37
2019-01-09T16:13:57.752Z,3.38
2019-01-09T16:17:05.044Z,3.30
2019-01-09T16:20:17.027Z,3.32
2019-01-09T16:23:22.080Z,3.37
2019-01-09T16:26:29.467Z,3.32
2019-01-09T16:29:36.591Z,3.32
2019-01-09T16:32:43.715Z,3.40
2019-01-09T16:35:50.878Z,3.39
2019-01-09T16:38:57.993Z,3.30
2019-01-09T16:42:05.355Z,3.36
2019-01-09T16:45:12.671Z,3.34
2019-01-09T16:48:19.810Z,3.32
2019-01-09T16:51:27.014Z,3.29
2019-01-09T16:54:34.244Z,3.31
2019-01-09T16:57:41.553Z,3.29
2019-01-09T17:00:48.947Z,3.15
2019-01-09T17:03:56.072Z,3.27
2019-01-09T17:07:02.966Z,3.27
2019-01-09T17:10:10.989Z,3.27
2019-01-09T17:13:27.712Z,3.34
2019-01-09T17:16:44.305Z,3.44
2019-01-09T17:19:51.446Z,3.35
2019-01-09T17:23:08.138Z,3.44
2019-01-09T17:26:15.265Z,3.27
2019-01-09T17:29:22.847Z,3.24
2019-01-09T17:32:39.254Z,3.29
2019-01-09T17:35:46.675Z,3.24
2019-01-09T17:39:03.608Z,3.33
2019-01-09T17:42:20.661Z,3.38
2019-01-09T17:45:27.950Z,3.24
2019-01-09T17:48:35.073Z,3.15
2019-01-09T17:51:52.227Z,3.30
2019-01-09T17:54:59.347Z,3.16
2019-01-09T17:58:06.530Z,3.18
2019-01-09T18:01:13.657Z,3.16
2019-01-09T18:04:21.113Z,3.18
2019-01-09T18:07:37.742Z,3.18
2019-01-09T18:10:50.050Z,3.12
2019-01-09T18:14:06.283Z,3.22
2019-01-09T18:17:23.048Z,3.22
2019-01-09T18:20:39.761Z,3.20
2019-01-09T18:23:56.448Z,3.22
2019-01-09T18:27:03.651Z,3.14
2019-01-09T18:30:14.302Z,3.03
2019-01-09T18:33:39.461Z,3.17
2019-01-09T18:37:03.347Z,3.15
2019-01-09T18:40:59.204Z,3.17
2019-01-09T18:44:33.001Z,3.03
2019-01-09T18:48:33.821Z,3.03
2019-01-09T18:52:28.609Z,3.14
2019-01-09T18:55:45.191Z,3.08
2019-01-09T18:58:52.680Z,2.99
2019-01-09T19:02:09.244Z,3.09
2019-01-09T19:05:25.876Z,3.12
2019-01-09T19:08:33.105Z,3.07
2019-01-09T19:11:40.302Z,3.03
2019-01-09T19:14:47.686Z,3.00
2019-01-09T19:18:04.292Z,3.06
2019-01-09T19:21:20.970Z,3.03
2019-01-09T19:24:37.703Z,2.99
2019-01-09T19:27:54.463Z,3.05
2019-01-09T19:31:11.193Z,3.05
2019-01-09T19:34:28.873Z,3.04
2019-01-09T19:37:36.070Z,3.01
2019-01-09T19:40:59.810Z,2.98
2019-01-09T19:44:07.186Z,2.90
2019-01-09T19:47:14.325Z,2.89
2019-01-09T19:50:23.063Z,2.93
2019-01-09T19:53:30.266Z,2.87
2019-01-09T19:56:37.468Z,2.88
2019-01-09T19:59:44.658Z,2.89
2019-01-09T20:02:51.904Z,2.84
2019-01-09T20:05:59.167Z,2.78
2019-01-09T20:09:08.696Z,2.78
2019-01-09T20:12:25.644Z,2.79
2019-01-09T20:15:32.984Z,2.75
2019-01-09T20:18:40.236Z,2.72
2019-01-09T20:21:47.464Z,2.71
2019-01-09T20:24:54.629Z,2.76
2019-01-09T20:28:01.769Z,2.73
2019-01-09T20:31:08.915Z,2.66
2019-01-09T20:34:16.294Z,2.68
2019-01-09T20:37:23.406Z,2.67
2019-01-09T20:40:30.599Z,2.55
2019-01-09T20:43:37.922Z,2.69
2019-01-09T20:46:45.035Z,2.73
2019-01-09T20:49:52.332Z,2.72
2019-01-09T20:52:59.808Z,2.76
2019-01-09T20:56:07.190Z,2.75
2019-01-09T20:59:14.448Z,2.76
2019-01-09T21:02:21.615Z,2.84
2019-01-09T21:05:32.096Z,2.74
2019-01-09T21:08:39.256Z,2.73
2019-01-09T21:11:46.569Z,2.66
2019-01-09T21:14:53.676Z,2.76
2019-01-09T21:18:00.970Z,2.74
2019-01-09T21:21:08.248Z,2.75
2019-01-09T21:24:15.453Z,2.69
2019-01-09T21:27:22.795Z,2.70
2019-01-09T21:30:29.967Z,2.69
2019-01-09T21:33:46.697Z,2.73
2019-01-09T21:36:53.998Z,2.71
2019-01-09T21:40:14.121Z,2.77
2019-01-09T21:43:30.612Z,2.77
2019-01-09T21:46:45.883Z,2.71
2019-01-09T21:49:46.546Z,2.70
2019-01-09T21:52:53.823Z,2.75
2019-01-09T21:56:01.031Z,2.67
2019-01-09T21:59:17.672Z,2.71
2019-01-09T22:02:24.857Z,2.61
2019-01-09T22:05:32.045Z,2.59
2019-01-09T22:08:48.909Z,2.53
2019-01-09T22:12:02.394Z,2.47
2019-01-09T22:15:07.811Z,2.52
2019-01-09T22:18:15.002Z,2.51
2019-01-09T22:21:22.278Z,2.56
2019-01-09T22:24:29.468Z,2.51
2019-01-09T22:27:36.659Z,2.56
2019-01-09T22:30:43.849Z,2.54
2019-01-09T22:33:51.046Z,2.50
2019-01-09T22:36:58.260Z,2.48
2019-01-09T22:40:06.900Z,2.50
2019-01-09T22:43:14.330Z,2.48
2019-01-09T22:46:21.523Z,2.57
2019-01-09T22:49:28.642Z,2.48
2019-01-09T22:52:35.837Z,2.42
2019-01-09T22:55:43.027Z,2.44
2019-01-09T22:58:50.179Z,2.40
2019-01-09T23:01:57.533Z,2.44
2019-01-09T23:05:04.098Z,2.31
2019-01-09T23:08:11.479Z,2.40
2019-01-09T23:11:18.597Z,2.38
2019-01-09T23:14:25.899Z,2.50
2019-01-09T23:17:33.192Z,2.39
2019-01-09T23:20:40.393Z,2.40
2019-01-09T23:23:47.076Z,2.34
2019-01-09T23:26:54.326Z,2.34
2019-01-09T23:30:01.523Z,2.33
2019-01-09T23:33:08.812Z,2.33
2019-01-09T23:36:16.191Z,2.33
2019-01-09T23:39:23.387Z,2.34
2019-01-09T23:42:30.860Z,2.34
2019-01-09T23:45:37.973Z,2.40
2019-01-09T23:48:45.262Z,2.42
2019-01-09T23:51:52.450Z,2.44
2019-01-09T23:54:59.566Z,2.32
2019-01-09T23:58:06.795Z,2.38
